Terminal Aerodrome Forecast
Issued by NWS

Current Version | Previous Version | Text Only | Print | Product List | Glossary Off
Versions: 1 2 3 4 5 6 7 8 9 10 11 12 13 14 15 16 17 18 19 20

000
FTUS41 KRNK 031737
TAFLWB
TAF
KLWB 031737Z 0318/0418 28006KT P6SM VCSH BKN018
     FM040200 30005KT P6SM SCT010 OVC018
     FM040600 32002KT 3SM BR OVC008
      TEMPO 0408/0412 1/4SM FG OVC002
     FM041200 27005KT P6SM OVC025=

USA.gov is the U.S. government's official web portal to all federal, state and local government web resources and services.